Lookout, West Virginia
Current Conditions -  °F | °C
As of 2:51 AM on Thursday 29 Jan 2015 (Local Time) from KBKW Reporting Station
Clear Clear  
Wind Chill: 18°   Ceiling: Unl
Heat Index: 27°   Visibility: 10mi
Dew Point: 12°   Wind: 9mph
Humidity: 53%   Direction: 140°SE
Pressure: 30.15"   Gusts: NA
Location:  38.06°N, 80.97°W
Report Text: KBKW 290751Z AUTO 14008KT 10SM CLR M03/M11 A3015 RMK AO2 SLP244 T10281111
Loading
Personal Weather Stations






























Interactive Weather Map New forecast layout! Learn more

10-Day Weather Forecast

Advertisements
Track Severe Weather on mobile